sensor_id;sensor_type;location;lat;lon;timestamp;P1;P2;P0
73825;PMS5003;64145;55.060;73.168;2023-12-20T00:00:36;0.00;0.00;0.00
73825;PMS5003;64145;55.060;73.168;2023-12-20T00:03:03;0.00;0.00;0.00
73825;PMS5003;64145;55.060;73.168;2023-12-20T00:05:28;0.50;0.00;0.00
73825;PMS5003;64145;55.060;73.168;2023-12-20T00:07:54;0.00;0.00;0.00
73825;PMS5003;64145;55.060;73.168;2023-12-20T00:10:19;0.00;0.00;0.00
73825;PMS5003;64145;55.060;73.168;2023-12-20T00:12:45;0.00;0.00;0.00
73825;PMS5003;64145;55.060;73.168;2023-12-20T00:15:11;3.00;2.00;2.00
73825;PMS5003;64145;55.060;73.168;2023-12-20T00:17:36;1.00;0.00;0.00
73825;PMS5003;64145;55.060;73.168;2023-12-20T00:20:02;1.00;1.00;0.00
73825;PMS5003;64145;55.060;73.168;2023-12-20T00:22:27;2.00;2.00;0.00
73825;PMS5003;64145;55.060;73.168;2023-12-20T00:24:53;0.00;0.00;0.00
73825;PMS5003;64145;55.060;73.168;2023-12-20T00:27:19;0.00;0.00;0.00
73825;PMS5003;64145;55.060;73.168;2023-12-20T00:29:44;0.00;0.00;0.00
73825;PMS5003;64145;55.060;73.168;2023-12-20T00:32:13;0.00;0.00;0.00
73825;PMS5003;64145;55.060;73.168;2023-12-20T00:34:39;1.00;1.00;0.00
73825;PMS5003;64145;55.060;73.168;2023-12-20T00:37:04;1.00;1.00;0.00
73825;PMS5003;64145;55.060;73.168;2023-12-20T00:39:30;0.00;0.00;0.00
73825;PMS5003;64145;55.060;73.168;2023-12-20T00:41:56;0.00;0.00;0.00
73825;PMS5003;64145;55.060;73.168;2023-12-20T00:44:22;2.00;2.00;0.00
73825;PMS5003;64145;55.060;73.168;2023-12-20T00:46:47;0.00;0.00;0.00
73825;PMS5003;64145;55.060;73.168;2023-12-20T00:49:13;0.00;0.00;0.00
73825;PMS5003;64145;55.060;73.168;2023-12-20T00:51:38;1.00;1.00;1.00
73825;PMS5003;64145;55.060;73.168;2023-12-20T00:54:04;3.00;2.00;1.00
73825;PMS5003;64145;55.060;73.168;2023-12-20T00:56:29;3.00;2.00;0.00
73825;PMS5003;64145;55.060;73.168;2023-12-20T00:58:55;3.00;3.00;1.67
73825;PMS5003;64145;55.060;73.168;2023-12-20T01:01:21;7.00;7.00;3.00
73825;PMS5003;64145;55.060;73.168;2023-12-20T01:03:47;5.00;5.00;3.00
73825;PMS5003;64145;55.060;73.168;2023-12-20T01:06:13;4.50;3.50;2.00
73825;PMS5003;64145;55.060;73.168;2023-12-20T01:08:39;4.00;3.00;2.00
73825;PMS5003;64145;55.060;73.168;2023-12-20T01:11:05;9.50;8.00;3.00
73825;PMS5003;64145;55.060;73.168;2023-12-20T01:13:31;10.00;10.00;6.00
73825;PMS5003;64145;55.060;73.168;2023-12-20T01:15:56;7.00;7.00;6.00
73825;PMS5003;64145;55.060;73.168;2023-12-20T01:18:22;13.50;13.00;6.50
73825;PMS5003;64145;55.060;73.168;2023-12-20T01:20:48;12.33;12.33;5.33
73825;PMS5003;64145;55.060;73.168;2023-12-20T01:23:13;8.00;8.00;4.00
73825;PMS5003;64145;55.060;73.168;2023-12-20T01:25:39;5.00;5.00;1.00
73825;PMS5003;64145;55.060;73.168;2023-12-20T01:28:05;2.00;2.00;1.00
73825;PMS5003;64145;55.060;73.168;2023-12-20T01:30:30;8.00;7.00;5.00
73825;PMS5003;64145;55.060;73.168;2023-12-20T01:32:56;6.00;5.00;3.00
73825;PMS5003;64145;55.060;73.168;2023-12-20T01:35:22;5.00;3.00;2.00
73825;PMS5003;64145;55.060;73.168;2023-12-20T01:37:47;1.50;1.00;0.00
73825;PMS5003;64145;55.060;73.168;2023-12-20T01:40:13;1.00;0.50;0.00
73825;PMS5003;64145;55.060;73.168;2023-12-20T01:42:38;3.00;3.00;0.33
73825;PMS5003;64145;55.060;73.168;2023-12-20T01:45:04;1.00;1.00;0.00
73825;PMS5003;64145;55.060;73.168;2023-12-20T01:47:30;4.67;4.67;2.67
73825;PMS5003;64145;55.060;73.168;2023-12-20T01:49:56;2.00;2.00;0.00
73825;PMS5003;64145;55.060;73.168;2023-12-20T01:52:22;1.00;1.00;0.00
73825;PMS5003;64145;55.060;73.168;2023-12-20T01:54:48;2.00;1.00;0.00
73825;PMS5003;64145;55.060;73.168;2023-12-20T01:57:14;1.00;1.00;0.00
73825;PMS5003;64145;55.060;73.168;2023-12-20T01:59:39;0.00;0.00;0.00
73825;PMS5003;64145;55.060;73.168;2023-12-20T02:02:05;1.00;1.00;0.00
73825;PMS5003;64145;55.060;73.168;2023-12-20T02:04:32;2.00;2.00;0.00
73825;PMS5003;64145;55.060;73.168;2023-12-20T02:06:58;0.00;0.00;0.00
73825;PMS5003;64145;55.060;73.168;2023-12-20T02:09:24;1.00;1.00;0.67
73825;PMS5003;64145;55.060;73.168;2023-12-20T02:11:49;0.00;0.00;0.00
73825;PMS5003;64145;55.060;73.168;2023-12-20T02:14:15;1.00;1.00;1.00
73825;PMS5003;64145;55.060;73.168;2023-12-20T02:16:41;1.00;0.00;0.00
73825;PMS5003;64145;55.060;73.168;2023-12-20T02:19:09;6.00;5.00;3.00
73825;PMS5003;64145;55.060;73.168;2023-12-20T02:21:38;6.00;5.50;2.50
73825;PMS5003;64145;55.060;73.168;2023-12-20T02:24:04;5.00;5.00;1.00
73825;PMS5003;64145;55.060;73.168;2023-12-20T02:26:30;7.50;6.50;3.00
73825;PMS5003;64145;55.060;73.168;2023-12-20T02:28:57;6.00;6.00;2.00
73825;PMS5003;64145;55.060;73.168;2023-12-20T02:31:23;7.50;7.00;5.00
73825;PMS5003;64145;55.060;73.168;2023-12-20T02:33:49;6.00;6.00;3.00
73825;PMS5003;64145;55.060;73.168;2023-12-20T02:36:14;1.50;1.50;1.00
73825;PMS5003;64145;55.060;73.168;2023-12-20T02:38:40;2.00;2.00;1.00
73825;PMS5003;64145;55.060;73.168;2023-12-20T02:41:06;6.50;5.50;3.00
73825;PMS5003;64145;55.060;73.168;2023-12-20T02:43:31;3.67;3.00;1.00
73825;PMS5003;64145;55.060;73.168;2023-12-20T02:45:57;3.00;2.33;1.00
73825;PMS5003;64145;55.060;73.168;2023-12-20T02:48:22;3.00;3.00;1.00
73825;PMS5003;64145;55.060;73.168;2023-12-20T02:50:48;5.00;5.00;0.00
73825;PMS5003;64145;55.060;73.168;2023-12-20T02:53:14;3.00;3.00;1.00
73825;PMS5003;64145;55.060;73.168;2023-12-20T02:55:40;2.00;1.50;0.00
73825;PMS5003;64145;55.060;73.168;2023-12-20T02:58:05;2.00;2.00;1.00
73825;PMS5003;64145;55.060;73.168;2023-12-20T03:00:31;1.50;1.50;0.00
73825;PMS5003;64145;55.060;73.168;2023-12-20T03:02:56;0.00;0.00;0.00
73825;PMS5003;64145;55.060;73.168;2023-12-20T03:05:22;0.00;0.00;0.00
73825;PMS5003;64145;55.060;73.168;2023-12-20T03:07:48;0.00;0.00;0.00
73825;PMS5003;64145;55.060;73.168;2023-12-20T03:10:13;0.00;0.00;0.00
73825;PMS5003;64145;55.060;73.168;2023-12-20T03:12:39;2.00;1.00;0.50
73825;PMS5003;64145;55.060;73.168;2023-12-20T03:15:06;0.00;0.00;0.00
73825;PMS5003;64145;55.060;73.168;2023-12-20T03:17:31;0.00;0.00;0.00
73825;PMS5003;64145;55.060;73.168;2023-12-20T03:19:57;2.50;2.50;2.50
73825;PMS5003;64145;55.060;73.168;2023-12-20T03:22:23;7.50;7.50;6.50
73825;PMS5003;64145;55.060;73.168;2023-12-20T03:24:48;3.00;3.00;2.00
73825;PMS5003;64145;55.060;73.168;2023-12-20T03:27:14;2.00;2.00;1.50
73825;PMS5003;64145;55.060;73.168;2023-12-20T03:29:40;4.50;3.00;1.00
73825;PMS5003;64145;55.060;73.168;2023-12-20T03:32:05;7.50;6.50;1.00
73825;PMS5003;64145;55.060;73.168;2023-12-20T03:34:31;6.00;6.00;1.00
73825;PMS5003;64145;55.060;73.168;2023-12-20T03:36:57;8.50;8.50;6.50
73825;PMS5003;64145;55.060;73.168;2023-12-20T03:39:22;11.50;11.50;8.50
73825;PMS5003;64145;55.060;73.168;2023-12-20T03:41:48;5.00;5.00;2.50
73825;PMS5003;64145;55.060;73.168;2023-12-20T03:44:13;5.00;3.00;1.00
73825;PMS5003;64145;55.060;73.168;2023-12-20T03:46:39;0.00;0.00;0.00
73825;PMS5003;64145;55.060;73.168;2023-12-20T03:49:05;0.00;0.00;0.00
73825;PMS5003;64145;55.060;73.168;2023-12-20T03:51:30;2.00;2.00;2.00
73825;PMS5003;64145;55.060;73.168;2023-12-20T03:53:56;8.00;8.00;7.00
73825;PMS5003;64145;55.060;73.168;2023-12-20T03:56:22;6.00;6.00;5.00
73825;PMS5003;64145;55.060;73.168;2023-12-20T03:58:47;7.50;7.50;5.00
73825;PMS5003;64145;55.060;73.168;2023-12-20T04:01:13;5.00;5.00;2.00
73825;PMS5003;64145;55.060;73.168;2023-12-20T04:03:38;6.67;6.67;4.67
73825;PMS5003;64145;55.060;73.168;2023-12-20T04:06:05;2.00;2.00;0.00
73825;PMS5003;64145;55.060;73.168;2023-12-20T04:08:31;1.00;1.00;0.00
73825;PMS5003;64145;55.060;73.168;2023-12-20T04:10:56;1.00;1.00;0.00
73825;PMS5003;64145;55.060;73.168;2023-12-20T04:13:22;0.00;0.00;0.00
73825;PMS5003;64145;55.060;73.168;2023-12-20T04:15:48;1.00;1.00;1.00
73825;PMS5003;64145;55.060;73.168;2023-12-20T04:18:15;3.00;3.00;1.67
73825;PMS5003;64145;55.060;73.168;2023-12-20T04:20:41;0.00;0.00;0.00
73825;PMS5003;64145;55.060;73.168;2023-12-20T04:23:06;0.00;0.00;0.00
73825;PMS5003;64145;55.060;73.168;2023-12-20T04:25:32;0.00;0.00;0.00
73825;PMS5003;64145;55.060;73.168;2023-12-20T04:27:58;0.50;0.00;0.00
73825;PMS5003;64145;55.060;73.168;2023-12-20T04:30:23;0.50;0.50;0.50
73825;PMS5003;64145;55.060;73.168;2023-12-20T04:32:49;0.00;0.00;0.00
73825;PMS5003;64145;55.060;73.168;2023-12-20T04:35:15;0.00;0.00;0.00
73825;PMS5003;64145;55.060;73.168;2023-12-20T04:37:40;0.00;0.00;0.00
73825;PMS5003;64145;55.060;73.168;2023-12-20T04:40:06;0.50;0.50;0.50
73825;PMS5003;64145;55.060;73.168;2023-12-20T04:42:33;0.50;0.50;0.50
73825;PMS5003;64145;55.060;73.168;2023-12-20T04:44:59;0.00;0.00;0.00
73825;PMS5003;64145;55.060;73.168;2023-12-20T04:47:24;2.00;1.00;0.00
73825;PMS5003;64145;55.060;73.168;2023-12-20T04:49:50;0.50;0.00;0.00
73825;PMS5003;64145;55.060;73.168;2023-12-20T04:52:16;0.50;0.50;0.00
73825;PMS5003;64145;55.060;73.168;2023-12-20T04:54:41;0.67;0.33;0.00
73825;PMS5003;64145;55.060;73.168;2023-12-20T04:57:07;1.00;0.50;0.00
73825;PMS5003;64145;55.060;73.168;2023-12-20T04:59:32;0.00;0.00;0.00
73825;PMS5003;64145;55.060;73.168;2023-12-20T05:01:58;0.00;0.00;0.00
73825;PMS5003;64145;55.060;73.168;2023-12-20T05:04:24;0.00;0.00;0.00
73825;PMS5003;64145;55.060;73.168;2023-12-20T05:06:49;0.00;0.00;0.00
73825;PMS5003;64145;55.060;73.168;2023-12-20T05:09:15;0.00;0.00;0.00
73825;PMS5003;64145;55.060;73.168;2023-12-20T05:11:41;0.00;0.00;0.00
73825;PMS5003;64145;55.060;73.168;2023-12-20T05:14:07;0.00;0.00;0.00
73825;PMS5003;64145;55.060;73.168;2023-12-20T05:16:32;0.00;0.00;0.00
73825;PMS5003;64145;55.060;73.168;2023-12-20T05:18:58;0.00;0.00;0.00
73825;PMS5003;64145;55.060;73.168;2023-12-20T05:21:26;0.00;0.00;0.00
73825;PMS5003;64145;55.060;73.168;2023-12-20T05:23:51;0.00;0.00;0.00
73825;PMS5003;64145;55.060;73.168;2023-12-20T05:26:17;0.00;0.00;0.00
73825;PMS5003;64145;55.060;73.168;2023-12-20T05:28:43;0.00;0.00;0.00
73825;PMS5003;64145;55.060;73.168;2023-12-20T05:31:09;0.00;0.00;0.00
73825;PMS5003;64145;55.060;73.168;2023-12-20T05:33:35;0.00;0.00;0.00
73825;PMS5003;64145;55.060;73.168;2023-12-20T05:36:11;0.00;0.00;0.00
73825;PMS5003;64145;55.060;73.168;2023-12-20T05:38:38;0.00;0.00;0.00
73825;PMS5003;64145;55.060;73.168;2023-12-20T05:41:04;0.00;0.00;0.00
73825;PMS5003;64145;55.060;73.168;2023-12-20T05:43:30;0.00;0.00;0.00
73825;PMS5003;64145;55.060;73.168;2023-12-20T05:45:55;0.00;0.00;0.00
73825;PMS5003;64145;55.060;73.168;2023-12-20T05:48:21;0.00;0.00;0.00
73825;PMS5003;64145;55.060;73.168;2023-12-20T05:50:47;0.00;0.00;0.00
73825;PMS5003;64145;55.060;73.168;2023-12-20T05:53:12;0.00;0.00;0.00
73825;PMS5003;64145;55.060;73.168;2023-12-20T05:55:38;0.00;0.00;0.00
73825;PMS5003;64145;55.060;73.168;2023-12-20T05:58:04;0.00;0.00;0.00
73825;PMS5003;64145;55.060;73.168;2023-12-20T06:00:30;0.00;0.00;0.00
73825;PMS5003;64145;55.060;73.168;2023-12-20T06:02:56;0.00;0.00;0.00
73825;PMS5003;64145;55.060;73.168;2023-12-20T06:05:21;0.00;0.00;0.00
73825;PMS5003;64145;55.060;73.168;2023-12-20T06:07:47;0.00;0.00;0.00
73825;PMS5003;64145;55.060;73.168;2023-12-20T06:10:13;0.00;0.00;0.00
73825;PMS5003;64145;55.060;73.168;2023-12-20T06:12:39;1.00;1.00;0.00
73825;PMS5003;64145;55.060;73.168;2023-12-20T06:15:05;0.00;0.00;0.00
73825;PMS5003;64145;55.060;73.168;2023-12-20T06:17:31;0.00;0.00;0.00
73825;PMS5003;64145;55.060;73.168;2023-12-20T06:19:57;0.00;0.00;0.00
73825;PMS5003;64145;55.060;73.168;2023-12-20T06:22:22;2.00;1.00;0.00
73825;PMS5003;64145;55.060;73.168;2023-12-20T06:24:48;0.00;0.00;0.00
73825;PMS5003;64145;55.060;73.168;2023-12-20T06:27:14;0.00;0.00;0.00
73825;PMS5003;64145;55.060;73.168;2023-12-20T06:29:39;0.00;0.00;0.00
73825;PMS5003;64145;55.060;73.168;2023-12-20T06:32:06;0.00;0.00;0.00
73825;PMS5003;64145;55.060;73.168;2023-12-20T06:34:32;0.00;0.00;0.00
73825;PMS5003;64145;55.060;73.168;2023-12-20T06:36:57;0.00;0.00;0.00
73825;PMS5003;64145;55.060;73.168;2023-12-20T06:39:23;0.00;0.00;0.00
73825;PMS5003;64145;55.060;73.168;2023-12-20T06:41:48;0.00;0.00;0.00
73825;PMS5003;64145;55.060;73.168;2023-12-20T06:44:14;0.00;0.00;0.00
73825;PMS5003;64145;55.060;73.168;2023-12-20T06:46:40;0.00;0.00;0.00
73825;PMS5003;64145;55.060;73.168;2023-12-20T06:49:05;0.00;0.00;0.00
73825;PMS5003;64145;55.060;73.168;2023-12-20T06:51:31;0.00;0.00;0.00
73825;PMS5003;64145;55.060;73.168;2023-12-20T06:53:57;0.00;0.00;0.00
73825;PMS5003;64145;55.060;73.168;2023-12-20T06:56:23;0.00;0.00;0.00
73825;PMS5003;64145;55.060;73.168;2023-12-20T06:58:48;0.00;0.00;0.00
73825;PMS5003;64145;55.060;73.168;2023-12-20T07:01:14;1.00;1.00;0.00
73825;PMS5003;64145;55.060;73.168;2023-12-20T07:03:40;0.00;0.00;0.00
73825;PMS5003;64145;55.060;73.168;2023-12-20T07:06:06;0.00;0.00;0.00
73825;PMS5003;64145;55.060;73.168;2023-12-20T07:08:32;0.00;0.00;0.00
73825;PMS5003;64145;55.060;73.168;2023-12-20T07:10:58;0.00;0.00;0.00
73825;PMS5003;64145;55.060;73.168;2023-12-20T07:13:24;0.00;0.00;0.00
73825;PMS5003;64145;55.060;73.168;2023-12-20T07:15:50;0.00;0.00;0.00
73825;PMS5003;64145;55.060;73.168;2023-12-20T07:18:15;0.00;0.00;0.00
73825;PMS5003;64145;55.060;73.168;2023-12-20T07:20:41;0.00;0.00;0.00
73825;PMS5003;64145;55.060;73.168;2023-12-20T07:23:08;0.00;0.00;0.00
73825;PMS5003;64145;55.060;73.168;2023-12-20T07:25:34;0.00;0.00;0.00
73825;PMS5003;64145;55.060;73.168;2023-12-20T07:27:59;0.00;0.00;0.00
73825;PMS5003;64145;55.060;73.168;2023-12-20T07:30:25;0.00;0.00;0.00
73825;PMS5003;64145;55.060;73.168;2023-12-20T07:32:51;0.00;0.00;0.00
73825;PMS5003;64145;55.060;73.168;2023-12-20T07:35:17;0.00;0.00;0.00
73825;PMS5003;64145;55.060;73.168;2023-12-20T07:37:43;0.00;0.00;0.00
73825;PMS5003;64145;55.060;73.168;2023-12-20T07:40:09;0.00;0.00;0.00
73825;PMS5003;64145;55.060;73.168;2023-12-20T07:42:35;0.00;0.00;0.00
73825;PMS5003;64145;55.060;73.168;2023-12-20T07:45:01;0.00;0.00;0.00
73825;PMS5003;64145;55.060;73.168;2023-12-20T07:47:26;0.00;0.00;0.00
73825;PMS5003;64145;55.060;73.168;2023-12-20T07:49:52;0.00;0.00;0.00
73825;PMS5003;64145;55.060;73.168;2023-12-20T07:52:18;0.00;0.00;0.00
73825;PMS5003;64145;55.060;73.168;2023-12-20T07:54:44;0.00;0.00;0.00
73825;PMS5003;64145;55.060;73.168;2023-12-20T07:57:10;0.00;0.00;0.00
73825;PMS5003;64145;55.060;73.168;2023-12-20T07:59:36;0.00;0.00;0.00
73825;PMS5003;64145;55.060;73.168;2023-12-20T08:02:01;0.00;0.00;0.00
73825;PMS5003;64145;55.060;73.168;2023-12-20T08:04:27;0.00;0.00;0.00
73825;PMS5003;64145;55.060;73.168;2023-12-20T08:06:52;0.00;0.00;0.00
73825;PMS5003;64145;55.060;73.168;2023-12-20T08:09:18;0.00;0.00;0.00
73825;PMS5003;64145;55.060;73.168;2023-12-20T08:11:47;0.00;0.00;0.00
73825;PMS5003;64145;55.060;73.168;2023-12-20T08:14:13;0.00;0.00;0.00
73825;PMS5003;64145;55.060;73.168;2023-12-20T08:16:38;0.00;0.00;0.00
73825;PMS5003;64145;55.060;73.168;2023-12-20T08:19:04;0.50;0.50;0.00
73825;PMS5003;64145;55.060;73.168;2023-12-20T08:21:30;0.00;0.00;0.00
73825;PMS5003;64145;55.060;73.168;2023-12-20T08:23:56;0.00;0.00;0.00
73825;PMS5003;64145;55.060;73.168;2023-12-20T08:26:22;0.00;0.00;0.00
73825;PMS5003;64145;55.060;73.168;2023-12-20T08:28:49;0.00;0.00;0.00
73825;PMS5003;64145;55.060;73.168;2023-12-20T08:31:18;0.00;0.00;0.00
73825;PMS5003;64145;55.060;73.168;2023-12-20T08:33:44;0.00;0.00;0.00
73825;PMS5003;64145;55.060;73.168;2023-12-20T08:36:10;0.00;0.00;0.00
73825;PMS5003;64145;55.060;73.168;2023-12-20T08:38:36;0.00;0.00;0.00
73825;PMS5003;64145;55.060;73.168;2023-12-20T08:41:01;0.00;0.00;0.00
73825;PMS5003;64145;55.060;73.168;2023-12-20T08:43:28;0.00;0.00;0.00
73825;PMS5003;64145;55.060;73.168;2023-12-20T08:45:54;0.00;0.00;0.00
73825;PMS5003;64145;55.060;73.168;2023-12-20T08:48:19;0.00;0.00;0.00
73825;PMS5003;64145;55.060;73.168;2023-12-20T08:50:45;0.00;0.00;0.00
73825;PMS5003;64145;55.060;73.168;2023-12-20T08:53:12;0.00;0.00;0.00
73825;PMS5003;64145;55.060;73.168;2023-12-20T08:55:38;0.00;0.00;0.00
73825;PMS5003;64145;55.060;73.168;2023-12-20T08:58:03;0.00;0.00;0.00
73825;PMS5003;64145;55.060;73.168;2023-12-20T09:00:29;0.00;0.00;0.00
73825;PMS5003;64145;55.060;73.168;2023-12-20T09:02:55;0.00;0.00;0.00
73825;PMS5003;64145;55.060;73.168;2023-12-20T09:05:20;0.00;0.00;0.00
73825;PMS5003;64145;55.060;73.168;2023-12-20T09:07:46;0.00;0.00;0.00
73825;PMS5003;64145;55.060;73.168;2023-12-20T09:10:12;0.00;0.00;0.00
73825;PMS5003;64145;55.060;73.168;2023-12-20T09:12:37;0.00;0.00;0.00
73825;PMS5003;64145;55.060;73.168;2023-12-20T09:15:06;0.00;0.00;0.00
73825;PMS5003;64145;55.060;73.168;2023-12-20T09:17:31;1.00;1.00;0.00
73825;PMS5003;64145;55.060;73.168;2023-12-20T09:19:57;3.00;3.00;3.00
73825;PMS5003;64145;55.060;73.168;2023-12-20T09:22:25;0.00;0.00;0.00
73825;PMS5003;64145;55.060;73.168;2023-12-20T09:24:51;0.50;0.50;0.00
73825;PMS5003;64145;55.060;73.168;2023-12-20T09:27:16;0.00;0.00;0.00
73825;PMS5003;64145;55.060;73.168;2023-12-20T09:29:42;1.00;0.50;0.00
73825;PMS5003;64145;55.060;73.168;2023-12-20T09:32:07;1.00;1.00;0.00
73825;PMS5003;64145;55.060;73.168;2023-12-20T09:34:33;0.00;0.00;0.00
73825;PMS5003;64145;55.060;73.168;2023-12-20T09:36:59;0.00;0.00;0.00
73825;PMS5003;64145;55.060;73.168;2023-12-20T09:39:24;0.50;0.50;0.00
73825;PMS5003;64145;55.060;73.168;2023-12-20T09:42:05;0.00;0.00;0.00
73825;PMS5003;64145;55.060;73.168;2023-12-20T09:44:31;0.00;0.00;0.00
73825;PMS5003;64145;55.060;73.168;2023-12-20T09:46:58;0.00;0.00;0.00
73825;PMS5003;64145;55.060;73.168;2023-12-20T09:49:27;0.00;0.00;0.00
73825;PMS5003;64145;55.060;73.168;2023-12-20T09:51:53;0.00;0.00;0.00
73825;PMS5003;64145;55.060;73.168;2023-12-20T09:54:19;0.00;0.00;0.00
73825;PMS5003;64145;55.060;73.168;2023-12-20T09:56:45;0.00;0.00;0.00
73825;PMS5003;64145;55.060;73.168;2023-12-20T09:59:11;1.00;1.00;1.00
73825;PMS5003;64145;55.060;73.168;2023-12-20T10:01:38;0.00;0.00;0.00
73825;PMS5003;64145;55.060;73.168;2023-12-20T10:04:05;1.00;1.00;0.00
73825;PMS5003;64145;55.060;73.168;2023-12-20T10:06:35;0.00;0.00;0.00
73825;PMS5003;64145;55.060;73.168;2023-12-20T10:09:01;0.00;0.00;0.00
73825;PMS5003;64145;55.060;73.168;2023-12-20T10:11:27;0.00;0.00;0.00
73825;PMS5003;64145;55.060;73.168;2023-12-20T10:13:58;0.00;0.00;0.00
73825;PMS5003;64145;55.060;73.168;2023-12-20T10:16:24;0.00;0.00;0.00
73825;PMS5003;64145;55.060;73.168;2023-12-20T10:18:52;0.00;0.00;0.00
73825;PMS5003;64145;55.060;73.168;2023-12-20T10:21:18;0.00;0.00;0.00
73825;PMS5003;64145;55.060;73.168;2023-12-20T10:23:43;0.00;0.00;0.00
73825;PMS5003;64145;55.060;73.168;2023-12-20T10:26:09;0.00;0.00;0.00
73825;PMS5003;64145;55.060;73.168;2023-12-20T10:28:35;0.00;0.00;0.00
73825;PMS5003;64145;55.060;73.168;2023-12-20T10:31:01;0.00;0.00;0.00
73825;PMS5003;64145;55.060;73.168;2023-12-20T10:33:27;0.00;0.00;0.00
73825;PMS5003;64145;55.060;73.168;2023-12-20T10:35:59;0.00;0.00;0.00
73825;PMS5003;64145;55.060;73.168;2023-12-20T10:38:25;1.00;1.00;0.00
73825;PMS5003;64145;55.060;73.168;2023-12-20T10:40:53;0.00;0.00;0.00
73825;PMS5003;64145;55.060;73.168;2023-12-20T10:43:19;0.00;0.00;0.00
73825;PMS5003;64145;55.060;73.168;2023-12-20T10:45:45;0.50;0.00;0.00
73825;PMS5003;64145;55.060;73.168;2023-12-20T10:48:11;2.00;2.00;1.00
73825;PMS5003;64145;55.060;73.168;2023-12-20T10:50:37;0.00;0.00;0.00
73825;PMS5003;64145;55.060;73.168;2023-12-20T10:53:06;0.00;0.00;0.00
73825;PMS5003;64145;55.060;73.168;2023-12-20T10:55:32;0.00;0.00;0.00
73825;PMS5003;64145;55.060;73.168;2023-12-20T10:58:02;0.00;0.00;0.00
73825;PMS5003;64145;55.060;73.168;2023-12-20T11:00:28;0.00;0.00;0.00
73825;PMS5003;64145;55.060;73.168;2023-12-20T11:02:55;0.00;0.00;0.00
73825;PMS5003;64145;55.060;73.168;2023-12-20T11:05:31;0.00;0.00;0.00
73825;PMS5003;64145;55.060;73.168;2023-12-20T11:08:19;0.00;0.00;0.00
73825;PMS5003;64145;55.060;73.168;2023-12-20T11:10:56;0.50;0.50;0.00
73825;PMS5003;64145;55.060;73.168;2023-12-20T11:13:59;0.00;0.00;0.00
73825;PMS5003;64145;55.060;73.168;2023-12-20T11:16:16;0.50;0.50;0.00
73825;PMS5003;64145;55.060;73.168;2023-12-20T11:18:50;2.00;2.00;0.00
73825;PMS5003;64145;55.060;73.168;2023-12-20T11:21:16;2.50;2.50;1.00
73825;PMS5003;64145;55.060;73.168;2023-12-20T11:23:42;0.00;0.00;0.00
73825;PMS5003;64145;55.060;73.168;2023-12-20T11:26:08;0.00;0.00;0.00
73825;PMS5003;64145;55.060;73.168;2023-12-20T11:28:34;0.00;0.00;0.00
73825;PMS5003;64145;55.060;73.168;2023-12-20T11:31:00;0.00;0.00;0.00
73825;PMS5003;64145;55.060;73.168;2023-12-20T11:33:38;0.00;0.00;0.00
73825;PMS5003;64145;55.060;73.168;2023-12-20T11:36:07;0.50;0.00;0.00
73825;PMS5003;64145;55.060;73.168;2023-12-20T11:38:38;0.50;0.50;0.00
73825;PMS5003;64145;55.060;73.168;2023-12-20T11:41:05;0.50;0.50;0.00
73825;PMS5003;64145;55.060;73.168;2023-12-20T11:43:37;0.00;0.00;0.00
73825;PMS5003;64145;55.060;73.168;2023-12-20T11:46:06;0.00;0.00;0.00
73825;PMS5003;64145;55.060;73.168;2023-12-20T11:48:32;0.00;0.00;0.00
73825;PMS5003;64145;55.060;73.168;2023-12-20T11:50:58;0.00;0.00;0.00
73825;PMS5003;64145;55.060;73.168;2023-12-20T11:53:24;0.00;0.00;0.00
73825;PMS5003;64145;55.060;73.168;2023-12-20T11:55:50;0.00;0.00;0.00
73825;PMS5003;64145;55.060;73.168;2023-12-20T11:58:16;4.50;3.50;2.00
73825;PMS5003;64145;55.060;73.168;2023-12-20T12:00:44;0.00;0.00;0.00
73825;PMS5003;64145;55.060;73.168;2023-12-20T12:03:10;0.00;0.00;0.00
73825;PMS5003;64145;55.060;73.168;2023-12-20T12:05:35;2.00;2.00;0.00
73825;PMS5003;64145;55.060;73.168;2023-12-20T12:08:02;0.00;0.00;0.00
73825;PMS5003;64145;55.060;73.168;2023-12-20T12:10:28;0.00;0.00;0.00
73825;PMS5003;64145;55.060;73.168;2023-12-20T12:12:54;2.00;2.00;1.00
73825;PMS5003;64145;55.060;73.168;2023-12-20T12:15:19;2.00;2.00;1.00
73825;PMS5003;64145;55.060;73.168;2023-12-20T12:18:04;0.00;0.00;0.00
73825;PMS5003;64145;55.060;73.168;2023-12-20T12:20:30;0.00;0.00;0.00
73825;PMS5003;64145;55.060;73.168;2023-12-20T12:23:04;1.00;1.00;0.00
73825;PMS5003;64145;55.060;73.168;2023-12-20T12:25:30;2.00;1.00;0.00
73825;PMS5003;64145;55.060;73.168;2023-12-20T12:28:00;0.00;0.00;0.00
73825;PMS5003;64145;55.060;73.168;2023-12-20T12:30:26;1.00;1.00;0.00
73825;PMS5003;64145;55.060;73.168;2023-12-20T12:32:55;1.00;1.00;0.00
73825;PMS5003;64145;55.060;73.168;2023-12-20T12:35:34;1.00;1.00;0.00
73825;PMS5003;64145;55.060;73.168;2023-12-20T12:38:00;0.00;0.00;0.00
73825;PMS5003;64145;55.060;73.168;2023-12-20T12:40:26;1.00;1.00;0.00
73825;PMS5003;64145;55.060;73.168;2023-12-20T12:42:52;2.00;1.00;1.00
73825;PMS5003;64145;55.060;73.168;2023-12-20T12:45:18;4.67;4.00;2.00
73825;PMS5003;64145;55.060;73.168;2023-12-20T12:47:56;1.00;1.00;0.00
73825;PMS5003;64145;55.060;73.168;2023-12-20T12:50:22;4.00;4.00;1.00
73825;PMS5003;64145;55.060;73.168;2023-12-20T12:52:48;2.00;2.00;0.00
73825;PMS5003;64145;55.060;73.168;2023-12-20T12:55:14;0.00;0.00;0.00
73825;PMS5003;64145;55.060;73.168;2023-12-20T12:57:42;1.00;0.50;0.00
73825;PMS5003;64145;55.060;73.168;2023-12-20T13:00:08;1.00;1.00;0.00
73825;PMS5003;64145;55.060;73.168;2023-12-20T13:02:35;0.00;0.00;0.00
73825;PMS5003;64145;55.060;73.168;2023-12-20T13:05:03;0.00;0.00;0.00
73825;PMS5003;64145;55.060;73.168;2023-12-20T13:07:29;0.00;0.00;0.00
73825;PMS5003;64145;55.060;73.168;2023-12-20T13:09:55;0.00;0.00;0.00
73825;PMS5003;64145;55.060;73.168;2023-12-20T13:12:21;1.00;0.50;0.00
73825;PMS5003;64145;55.060;73.168;2023-12-20T13:15:02;2.00;2.00;0.00
73825;PMS5003;64145;55.060;73.168;2023-12-20T13:17:29;1.50;1.00;0.00
73825;PMS5003;64145;55.060;73.168;2023-12-20T13:19:55;1.33;0.33;0.00
73825;PMS5003;64145;55.060;73.168;2023-12-20T13:22:20;2.00;0.00;0.00
73825;PMS5003;64145;55.060;73.168;2023-12-20T13:24:46;0.00;0.00;0.00
73825;PMS5003;64145;55.060;73.168;2023-12-20T13:27:12;1.00;1.00;0.00
73825;PMS5003;64145;55.060;73.168;2023-12-20T13:29:37;1.00;0.50;0.00
73825;PMS5003;64145;55.060;73.168;2023-12-20T13:32:03;0.00;0.00;0.00
73825;PMS5003;64145;55.060;73.168;2023-12-20T13:34:29;0.00;0.00;0.00
73825;PMS5003;64145;55.060;73.168;2023-12-20T13:36:55;0.00;0.00;0.00
73825;PMS5003;64145;55.060;73.168;2023-12-20T13:39:21;0.00;0.00;0.00
73825;PMS5003;64145;55.060;73.168;2023-12-20T13:41:47;0.00;0.00;0.00
73825;PMS5003;64145;55.060;73.168;2023-12-20T13:44:13;2.00;1.50;0.00
73825;PMS5003;64145;55.060;73.168;2023-12-20T13:46:39;0.00;0.00;0.00
73825;PMS5003;64145;55.060;73.168;2023-12-20T13:49:05;1.67;1.33;0.33
73825;PMS5003;64145;55.060;73.168;2023-12-20T13:51:31;1.00;1.00;0.00
73825;PMS5003;64145;55.060;73.168;2023-12-20T13:53:56;0.00;0.00;0.00
73825;PMS5003;64145;55.060;73.168;2023-12-20T13:56:22;0.00;0.00;0.00
73825;PMS5003;64145;55.060;73.168;2023-12-20T13:58:48;0.00;0.00;0.00
73825;PMS5003;64145;55.060;73.168;2023-12-20T14:01:15;1.33;1.00;0.00
73825;PMS5003;64145;55.060;73.168;2023-12-20T14:03:41;1.00;0.00;0.00